sensor_id;sensor_type;location;lat;lon;timestamp;temperature;humidity
25983;DHT22;13773;48.868;10.730;2023-09-18T00:00:45;18.10;99.90
25983;DHT22;13773;48.868;10.730;2023-09-18T00:03:12;18.00;99.90
25983;DHT22;13773;48.868;10.730;2023-09-18T00:05:37;17.90;99.90
25983;DHT22;13773;48.868;10.730;2023-09-18T00:08:03;17.80;99.90
25983;DHT22;13773;48.868;10.730;2023-09-18T00:10:29;17.90;99.90
25983;DHT22;13773;48.868;10.730;2023-09-18T00:12:56;17.90;99.90
25983;DHT22;13773;48.868;10.730;2023-09-18T00:15:22;18.00;99.90
25983;DHT22;13773;48.868;10.730;2023-09-18T00:17:48;18.10;99.90
25983;DHT22;13773;48.868;10.730;2023-09-18T00:20:14;18.10;99.90
25983;DHT22;13773;48.868;10.730;2023-09-18T00:22:42;18.20;99.90
25983;DHT22;13773;48.868;10.730;2023-09-18T00:25:08;18.20;99.90
25983;DHT22;13773;48.868;10.730;2023-09-18T00:27:34;18.10;99.90
25983;DHT22;13773;48.868;10.730;2023-09-18T00:30:04;18.00;99.90
25983;DHT22;13773;48.868;10.730;2023-09-18T00:32:31;17.90;99.90
25983;DHT22;13773;48.868;10.730;2023-09-18T00:34:57;18.00;99.90
25983;DHT22;13773;48.868;10.730;2023-09-18T00:37:23;18.00;99.90
25983;DHT22;13773;48.868;10.730;2023-09-18T00:39:50;17.90;99.90
25983;DHT22;13773;48.868;10.730;2023-09-18T00:42:15;17.90;99.90
25983;DHT22;13773;48.868;10.730;2023-09-18T00:44:43;17.80;99.90
25983;DHT22;13773;48.868;10.730;2023-09-18T00:47:10;17.80;99.90
25983;DHT22;13773;48.868;10.730;2023-09-18T00:49:39;17.90;99.90
25983;DHT22;13773;48.868;10.730;2023-09-18T00:52:06;17.80;99.90
25983;DHT22;13773;48.868;10.730;2023-09-18T00:54:33;17.70;99.90
25983;DHT22;13773;48.868;10.730;2023-09-18T00:57:00;17.60;99.90
25983;DHT22;13773;48.868;10.730;2023-09-18T00:59:26;17.50;99.90
25983;DHT22;13773;48.868;10.730;2023-09-18T01:01:52;17.40;99.90
25983;DHT22;13773;48.868;10.730;2023-09-18T01:04:18;17.40;99.90
25983;DHT22;13773;48.868;10.730;2023-09-18T01:06:44;17.30;99.90
25983;DHT22;13773;48.868;10.730;2023-09-18T01:09:11;17.20;99.90
25983;DHT22;13773;48.868;10.730;2023-09-18T01:17:10;17.20;99.90
25983;DHT22;13773;48.868;10.730;2023-09-18T01:19:43;17.10;99.90
25983;DHT22;13773;48.868;10.730;2023-09-18T01:22:14;17.10;99.90
25983;DHT22;13773;48.868;10.730;2023-09-18T01:24:40;17.20;99.90
25983;DHT22;13773;48.868;10.730;2023-09-18T01:27:09;17.10;99.90
25983;DHT22;13773;48.868;10.730;2023-09-18T01:29:35;17.10;99.90
25983;DHT22;13773;48.868;10.730;2023-09-18T01:32:01;17.10;99.90
25983;DHT22;13773;48.868;10.730;2023-09-18T01:34:35;17.10;99.90
25983;DHT22;13773;48.868;10.730;2023-09-18T01:37:03;14.70;99.90
25983;DHT22;13773;48.868;10.730;2023-09-18T01:39:31;17.10;99.90
25983;DHT22;13773;48.868;10.730;2023-09-18T01:41:59;17.20;99.90
25983;DHT22;13773;48.868;10.730;2023-09-18T01:44:27;17.20;99.90
25983;DHT22;13773;48.868;10.730;2023-09-18T01:46:53;17.00;99.90
25983;DHT22;13773;48.868;10.730;2023-09-18T01:49:34;17.10;99.90
25983;DHT22;13773;48.868;10.730;2023-09-18T01:52:00;17.10;99.90
25983;DHT22;13773;48.868;10.730;2023-09-18T01:54:26;17.20;99.90
25983;DHT22;13773;48.868;10.730;2023-09-18T01:56:52;17.30;99.90
25983;DHT22;13773;48.868;10.730;2023-09-18T01:59:19;17.30;99.90
25983;DHT22;13773;48.868;10.730;2023-09-18T02:01:45;17.30;99.90
25983;DHT22;13773;48.868;10.730;2023-09-18T02:04:11;17.40;99.90
25983;DHT22;13773;48.868;10.730;2023-09-18T02:06:36;17.40;99.90
25983;DHT22;13773;48.868;10.730;2023-09-18T02:09:02;17.40;99.90
25983;DHT22;13773;48.868;10.730;2023-09-18T02:11:33;17.30;99.90
25983;DHT22;13773;48.868;10.730;2023-09-18T02:13:59;17.20;99.90
25983;DHT22;13773;48.868;10.730;2023-09-18T02:16:24;17.20;99.90
25983;DHT22;13773;48.868;10.730;2023-09-18T02:18:54;17.10;99.90
25983;DHT22;13773;48.868;10.730;2023-09-18T02:21:22;17.00;99.90
25983;DHT22;13773;48.868;10.730;2023-09-18T02:23:51;17.00;99.90
25983;DHT22;13773;48.868;10.730;2023-09-18T02:26:18;16.90;99.90
25983;DHT22;13773;48.868;10.730;2023-09-18T02:28:44;16.80;99.90
25983;DHT22;13773;48.868;10.730;2023-09-18T02:31:10;16.80;99.90
25983;DHT22;13773;48.868;10.730;2023-09-18T02:33:37;16.80;99.90
25983;DHT22;13773;48.868;10.730;2023-09-18T02:36:02;16.70;99.90
25983;DHT22;13773;48.868;10.730;2023-09-18T02:38:28;16.70;99.90
25983;DHT22;13773;48.868;10.730;2023-09-18T02:40:55;16.80;99.90
25983;DHT22;13773;48.868;10.730;2023-09-18T02:43:22;16.90;99.90
25983;DHT22;13773;48.868;10.730;2023-09-18T02:45:49;17.00;99.90
25983;DHT22;13773;48.868;10.730;2023-09-18T02:48:15;17.00;99.90
25983;DHT22;13773;48.868;10.730;2023-09-18T02:50:40;17.00;99.90
25983;DHT22;13773;48.868;10.730;2023-09-18T02:53:07;17.10;99.90
25983;DHT22;13773;48.868;10.730;2023-09-18T02:55:37;17.00;99.90
25983;DHT22;13773;48.868;10.730;2023-09-18T02:58:02;17.10;99.90
25983;DHT22;13773;48.868;10.730;2023-09-18T03:00:28;17.20;99.90
25983;DHT22;13773;48.868;10.730;2023-09-18T03:02:54;17.40;99.90
25983;DHT22;13773;48.868;10.730;2023-09-18T03:05:20;17.40;99.90
25983;DHT22;13773;48.868;10.730;2023-09-18T03:07:45;17.40;99.90
25983;DHT22;13773;48.868;10.730;2023-09-18T03:10:11;17.50;99.90
25983;DHT22;13773;48.868;10.730;2023-09-18T03:12:40;17.60;99.90
25983;DHT22;13773;48.868;10.730;2023-09-18T03:15:06;17.50;99.90
25983;DHT22;13773;48.868;10.730;2023-09-18T03:17:32;17.50;99.90
25983;DHT22;13773;48.868;10.730;2023-09-18T03:19:58;17.50;99.90
25983;DHT22;13773;48.868;10.730;2023-09-18T03:22:25;17.50;99.90
25983;DHT22;13773;48.868;10.730;2023-09-18T03:24:50;17.40;99.90
25983;DHT22;13773;48.868;10.730;2023-09-18T03:27:16;17.40;99.90
25983;DHT22;13773;48.868;10.730;2023-09-18T03:29:42;17.40;99.90
25983;DHT22;13773;48.868;10.730;2023-09-18T03:32:07;17.40;99.90
25983;DHT22;13773;48.868;10.730;2023-09-18T03:34:37;17.30;99.90
25983;DHT22;13773;48.868;10.730;2023-09-18T03:37:03;17.30;99.90
25983;DHT22;13773;48.868;10.730;2023-09-18T03:39:29;17.30;99.90
25983;DHT22;13773;48.868;10.730;2023-09-18T03:41:55;17.30;99.90
25983;DHT22;13773;48.868;10.730;2023-09-18T03:44:20;17.30;99.90
25983;DHT22;13773;48.868;10.730;2023-09-18T03:46:46;17.50;99.90
25983;DHT22;13773;48.868;10.730;2023-09-18T03:49:12;17.60;99.90
25983;DHT22;13773;48.868;10.730;2023-09-18T03:51:38;17.60;99.90
25983;DHT22;13773;48.868;10.730;2023-09-18T03:54:04;17.50;99.90
25983;DHT22;13773;48.868;10.730;2023-09-18T03:56:29;17.50;99.90
25983;DHT22;13773;48.868;10.730;2023-09-18T03:58:55;17.40;99.90
25983;DHT22;13773;48.868;10.730;2023-09-18T04:01:23;17.30;99.90
25983;DHT22;13773;48.868;10.730;2023-09-18T04:03:48;17.20;99.90
25983;DHT22;13773;48.868;10.730;2023-09-18T04:06:14;17.20;99.90
25983;DHT22;13773;48.868;10.730;2023-09-18T04:08:40;17.20;99.90
25983;DHT22;13773;48.868;10.730;2023-09-18T04:11:05;17.20;99.90
25983;DHT22;13773;48.868;10.730;2023-09-18T04:13:35;17.10;99.90
25983;DHT22;13773;48.868;10.730;2023-09-18T04:16:00;17.10;99.90
25983;DHT22;13773;48.868;10.730;2023-09-18T04:18:26;17.00;99.90
25983;DHT22;13773;48.868;10.730;2023-09-18T04:20:52;16.90;99.90
25983;DHT22;13773;48.868;10.730;2023-09-18T04:23:23;16.80;99.90
25983;DHT22;13773;48.868;10.730;2023-09-18T04:25:50;16.70;99.90
25983;DHT22;13773;48.868;10.730;2023-09-18T04:28:17;16.70;99.90
25983;DHT22;13773;48.868;10.730;2023-09-18T04:30:44;16.70;99.90
25983;DHT22;13773;48.868;10.730;2023-09-18T04:33:10;16.70;99.90
25983;DHT22;13773;48.868;10.730;2023-09-18T04:35:38;16.60;99.90
25983;DHT22;13773;48.868;10.730;2023-09-18T04:38:07;16.50;99.90
25983;DHT22;13773;48.868;10.730;2023-09-18T04:40:33;16.40;99.90
25983;DHT22;13773;48.868;10.730;2023-09-18T04:42:59;16.30;99.90
25983;DHT22;13773;48.868;10.730;2023-09-18T04:45:25;16.20;99.90
25983;DHT22;13773;48.868;10.730;2023-09-18T04:47:51;16.20;99.90
25983;DHT22;13773;48.868;10.730;2023-09-18T04:50:17;16.00;99.90
25983;DHT22;13773;48.868;10.730;2023-09-18T04:52:43;16.00;99.90
25983;DHT22;13773;48.868;10.730;2023-09-18T04:55:10;16.00;99.90
25983;DHT22;13773;48.868;10.730;2023-09-18T04:57:36;15.90;99.90
25983;DHT22;13773;48.868;10.730;2023-09-18T05:00:02;15.80;99.90
25983;DHT22;13773;48.868;10.730;2023-09-18T05:02:28;15.80;99.90
25983;DHT22;13773;48.868;10.730;2023-09-18T05:04:56;15.60;99.90
25983;DHT22;13773;48.868;10.730;2023-09-18T05:07:21;15.70;99.90
25983;DHT22;13773;48.868;10.730;2023-09-18T05:09:47;15.70;99.90
25983;DHT22;13773;48.868;10.730;2023-09-18T05:12:13;15.80;99.90
25983;DHT22;13773;48.868;10.730;2023-09-18T05:14:41;15.80;99.90
25983;DHT22;13773;48.868;10.730;2023-09-18T05:17:10;16.00;99.90
25983;DHT22;13773;48.868;10.730;2023-09-18T05:19:39;16.00;99.90
25983;DHT22;13773;48.868;10.730;2023-09-18T05:22:04;16.10;99.90
25983;DHT22;13773;48.868;10.730;2023-09-18T05:24:30;16.10;99.90
25983;DHT22;13773;48.868;10.730;2023-09-18T05:26:56;16.20;99.90
25983;DHT22;13773;48.868;10.730;2023-09-18T05:29:22;16.20;99.90
25983;DHT22;13773;48.868;10.730;2023-09-18T05:31:47;16.10;99.90
25983;DHT22;13773;48.868;10.730;2023-09-18T05:34:13;16.10;99.90
25983;DHT22;13773;48.868;10.730;2023-09-18T05:36:39;16.10;99.90
25983;DHT22;13773;48.868;10.730;2023-09-18T05:39:05;16.10;99.90
25983;DHT22;13773;48.868;10.730;2023-09-18T05:41:35;16.10;99.90
25983;DHT22;13773;48.868;10.730;2023-09-18T05:44:01;16.10;99.90
25983;DHT22;13773;48.868;10.730;2023-09-18T05:46:29;16.20;99.90
25983;DHT22;13773;48.868;10.730;2023-09-18T05:48:55;16.20;99.90
25983;DHT22;13773;48.868;10.730;2023-09-18T05:51:22;16.10;99.90
25983;DHT22;13773;48.868;10.730;2023-09-18T05:53:49;16.20;99.90
25983;DHT22;13773;48.868;10.730;2023-09-18T05:56:14;16.20;99.90
25983;DHT22;13773;48.868;10.730;2023-09-18T05:58:42;16.30;99.90
25983;DHT22;13773;48.868;10.730;2023-09-18T06:01:08;16.30;99.90
25983;DHT22;13773;48.868;10.730;2023-09-18T06:03:34;16.30;99.90
25983;DHT22;13773;48.868;10.730;2023-09-18T06:06:07;16.40;99.90
25983;DHT22;13773;48.868;10.730;2023-09-18T06:08:34;16.50;99.90
25983;DHT22;13773;48.868;10.730;2023-09-18T06:10:59;16.50;99.90
25983;DHT22;13773;48.868;10.730;2023-09-18T06:13:25;16.60;99.90
25983;DHT22;13773;48.868;10.730;2023-09-18T06:15:55;16.70;99.90
25983;DHT22;13773;48.868;10.730;2023-09-18T06:18:22;16.70;99.90
25983;DHT22;13773;48.868;10.730;2023-09-18T06:20:49;16.70;99.90
25983;DHT22;13773;48.868;10.730;2023-09-18T06:23:14;16.80;99.90
25983;DHT22;13773;48.868;10.730;2023-09-18T06:25:40;17.00;99.90
25983;DHT22;13773;48.868;10.730;2023-09-18T06:28:06;17.00;99.90
25983;DHT22;13773;48.868;10.730;2023-09-18T06:30:32;17.10;99.90
25983;DHT22;13773;48.868;10.730;2023-09-18T06:33:00;17.10;99.90
25983;DHT22;13773;48.868;10.730;2023-09-18T06:35:26;17.00;99.90
25983;DHT22;13773;48.868;10.730;2023-09-18T06:37:52;17.00;99.90
25983;DHT22;13773;48.868;10.730;2023-09-18T06:40:20;17.10;99.90
25983;DHT22;13773;48.868;10.730;2023-09-18T06:42:46;17.40;99.90
25983;DHT22;13773;48.868;10.730;2023-09-18T06:45:11;17.70;99.90
25983;DHT22;13773;48.868;10.730;2023-09-18T06:47:38;18.00;99.90
25983;DHT22;13773;48.868;10.730;2023-09-18T06:50:06;18.30;99.90
25983;DHT22;13773;48.868;10.730;2023-09-18T06:52:32;18.60;99.90
25983;DHT22;13773;48.868;10.730;2023-09-18T06:54:58;18.60;99.90
25983;DHT22;13773;48.868;10.730;2023-09-18T06:57:24;18.50;99.90
25983;DHT22;13773;48.868;10.730;2023-09-18T06:59:50;18.50;99.90
25983;DHT22;13773;48.868;10.730;2023-09-18T07:02:16;18.60;99.90
25983;DHT22;13773;48.868;10.730;2023-09-18T07:04:42;18.90;99.90
25983;DHT22;13773;48.868;10.730;2023-09-18T07:07:12;18.90;99.90
25983;DHT22;13773;48.868;10.730;2023-09-18T07:09:39;18.90;99.90
25983;DHT22;13773;48.868;10.730;2023-09-18T07:12:06;19.10;99.90
25983;DHT22;13773;48.868;10.730;2023-09-18T07:14:31;19.00;99.90
25983;DHT22;13773;48.868;10.730;2023-09-18T07:16:57;19.10;99.90
25983;DHT22;13773;48.868;10.730;2023-09-18T07:19:23;19.30;99.90
25983;DHT22;13773;48.868;10.730;2023-09-18T07:21:48;19.50;99.90
25983;DHT22;13773;48.868;10.730;2023-09-18T07:24:15;19.70;99.90
25983;DHT22;13773;48.868;10.730;2023-09-18T07:26:45;20.00;99.90
25983;DHT22;13773;48.868;10.730;2023-09-18T07:29:11;20.30;99.90
25983;DHT22;13773;48.868;10.730;2023-09-18T07:31:36;20.50;99.90
25983;DHT22;13773;48.868;10.730;2023-09-18T07:34:02;20.40;99.90
25983;DHT22;13773;48.868;10.730;2023-09-18T07:36:30;19.80;99.90
25983;DHT22;13773;48.868;10.730;2023-09-18T07:38:55;19.90;99.90
25983;DHT22;13773;48.868;10.730;2023-09-18T07:41:22;20.00;99.90
25983;DHT22;13773;48.868;10.730;2023-09-18T07:43:48;20.20;99.90
25983;DHT22;13773;48.868;10.730;2023-09-18T07:46:13;20.50;99.90
25983;DHT22;13773;48.868;10.730;2023-09-18T07:48:39;20.70;99.90
25983;DHT22;13773;48.868;10.730;2023-09-18T07:51:05;20.90;99.90
25983;DHT22;13773;48.868;10.730;2023-09-18T07:53:31;21.10;99.90
25983;DHT22;13773;48.868;10.730;2023-09-18T07:55:58;21.30;99.90
25983;DHT22;13773;48.868;10.730;2023-09-18T07:58:25;21.40;99.90
25983;DHT22;13773;48.868;10.730;2023-09-18T08:00:55;21.50;99.90
25983;DHT22;13773;48.868;10.730;2023-09-18T08:03:20;21.50;99.90
25983;DHT22;13773;48.868;10.730;2023-09-18T08:05:50;21.30;99.90
25983;DHT22;13773;48.868;10.730;2023-09-18T08:08:18;21.10;99.90
25983;DHT22;13773;48.868;10.730;2023-09-18T08:10:46;21.20;99.90
25983;DHT22;13773;48.868;10.730;2023-09-18T08:13:12;21.30;99.90
25983;DHT22;13773;48.868;10.730;2023-09-18T08:15:38;21.50;99.90
25983;DHT22;13773;48.868;10.730;2023-09-18T08:18:04;21.90;99.90
25983;DHT22;13773;48.868;10.730;2023-09-18T08:20:30;22.10;99.90
25983;DHT22;13773;48.868;10.730;2023-09-18T08:22:56;22.30;99.90
25983;DHT22;13773;48.868;10.730;2023-09-18T08:25:22;22.50;99.90
25983;DHT22;13773;48.868;10.730;2023-09-18T08:27:48;22.60;99.90
25983;DHT22;13773;48.868;10.730;2023-09-18T08:30:14;22.70;99.90
25983;DHT22;13773;48.868;10.730;2023-09-18T08:32:42;24.00;99.90
25983;DHT22;13773;48.868;10.730;2023-09-18T08:35:08;23.20;99.90
25983;DHT22;13773;48.868;10.730;2023-09-18T08:37:34;23.50;99.90
25983;DHT22;13773;48.868;10.730;2023-09-18T08:40:00;23.60;99.90
25983;DHT22;13773;48.868;10.730;2023-09-18T08:42:28;23.80;99.90
25983;DHT22;13773;48.868;10.730;2023-09-18T08:44:58;24.10;99.90
25983;DHT22;13773;48.868;10.730;2023-09-18T08:47:25;24.00;99.90
25983;DHT22;13773;48.868;10.730;2023-09-18T08:49:53;24.00;99.90
25983;DHT22;13773;48.868;10.730;2023-09-18T08:52:20;24.00;99.90
25983;DHT22;13773;48.868;10.730;2023-09-18T08:54:46;24.10;99.90
25983;DHT22;13773;48.868;10.730;2023-09-18T08:57:12;24.20;99.90
25983;DHT22;13773;48.868;10.730;2023-09-18T08:59:39;24.10;99.90
25983;DHT22;13773;48.868;10.730;2023-09-18T09:02:06;23.90;99.90
25983;DHT22;13773;48.868;10.730;2023-09-18T09:04:31;23.80;99.90
25983;DHT22;13773;48.868;10.730;2023-09-18T09:06:57;23.80;99.90
25983;DHT22;13773;48.868;10.730;2023-09-18T09:09:25;23.90;99.90
25983;DHT22;13773;48.868;10.730;2023-09-18T09:11:52;24.00;99.90
25983;DHT22;13773;48.868;10.730;2023-09-18T09:14:18;24.10;99.90
25983;DHT22;13773;48.868;10.730;2023-09-18T09:16:48;24.20;99.90
25983;DHT22;13773;48.868;10.730;2023-09-18T09:19:16;24.00;99.90
25983;DHT22;13773;48.868;10.730;2023-09-18T09:21:43;24.00;99.90
25983;DHT22;13773;48.868;10.730;2023-09-18T09:24:10;24.00;99.90
25983;DHT22;13773;48.868;10.730;2023-09-18T09:26:42;24.40;99.90
25983;DHT22;13773;48.868;10.730;2023-09-18T09:29:16;24.40;99.90
25983;DHT22;13773;48.868;10.730;2023-09-18T09:31:44;24.20;99.90
25983;DHT22;13773;48.868;10.730;2023-09-18T09:34:09;24.50;99.90
25983;DHT22;13773;48.868;10.730;2023-09-18T09:36:35;24.40;99.90
25983;DHT22;13773;48.868;10.730;2023-09-18T09:39:01;24.40;99.90
25983;DHT22;13773;48.868;10.730;2023-09-18T09:41:31;24.50;99.90
25983;DHT22;13773;48.868;10.730;2023-09-18T09:43:58;24.30;99.90
25983;DHT22;13773;48.868;10.730;2023-09-18T09:46:24;24.30;99.90
25983;DHT22;13773;48.868;10.730;2023-09-18T09:49:05;24.30;99.90
25983;DHT22;13773;48.868;10.730;2023-09-18T09:51:32;24.20;99.90
25983;DHT22;13773;48.868;10.730;2023-09-18T09:53:59;24.10;99.90
25983;DHT22;13773;48.868;10.730;2023-09-18T09:59:12;24.20;99.90
25983;DHT22;13773;48.868;10.730;2023-09-18T10:01:39;24.20;99.90
25983;DHT22;13773;48.868;10.730;2023-09-18T10:04:13;24.30;99.90
25983;DHT22;13773;48.868;10.730;2023-09-18T10:06:43;24.30;99.90
25983;DHT22;13773;48.868;10.730;2023-09-18T10:09:11;24.20;99.90
25983;DHT22;13773;48.868;10.730;2023-09-18T10:11:41;23.80;99.90
25983;DHT22;13773;48.868;10.730;2023-09-18T10:14:14;23.80;99.90
25983;DHT22;13773;48.868;10.730;2023-09-18T10:16:46;23.60;99.90
25983;DHT22;13773;48.868;10.730;2023-09-18T10:19:20;23.70;99.90
25983;DHT22;13773;48.868;10.730;2023-09-18T10:24:34;24.00;99.90
25983;DHT22;13773;48.868;10.730;2023-09-18T10:27:03;24.10;99.90
25983;DHT22;13773;48.868;10.730;2023-09-18T10:29:33;24.10;99.90
25983;DHT22;13773;48.868;10.730;2023-09-18T10:32:03;24.10;99.90
25983;DHT22;13773;48.868;10.730;2023-09-18T10:34:36;22.10;99.90
25983;DHT22;13773;48.868;10.730;2023-09-18T10:37:04;24.30;99.90
25983;DHT22;13773;48.868;10.730;2023-09-18T10:39:36;24.40;99.90
25983;DHT22;13773;48.868;10.730;2023-09-18T10:42:03;24.50;99.90
25983;DHT22;13773;48.868;10.730;2023-09-18T10:44:31;24.50;99.90
25983;DHT22;13773;48.868;10.730;2023-09-18T10:47:04;24.30;99.90
25983;DHT22;13773;48.868;10.730;2023-09-18T10:49:34;24.40;99.90
25983;DHT22;13773;48.868;10.730;2023-09-18T10:52:00;24.00;99.90
25983;DHT22;13773;48.868;10.730;2023-09-18T10:54:30;23.80;99.90
25983;DHT22;13773;48.868;10.730;2023-09-18T10:56:56;23.40;99.90
25983;DHT22;13773;48.868;10.730;2023-09-18T10:59:23;23.00;99.90
25983;DHT22;13773;48.868;10.730;2023-09-18T11:01:49;22.90;99.90
25983;DHT22;13773;48.868;10.730;2023-09-18T11:04:19;22.80;99.90
25983;DHT22;13773;48.868;10.730;2023-09-18T11:07:01;22.50;99.90
25983;DHT22;13773;48.868;10.730;2023-09-18T11:09:30;22.40;99.90
25983;DHT22;13773;48.868;10.730;2023-09-18T11:12:03;22.30;99.90
25983;DHT22;13773;48.868;10.730;2023-09-18T11:14:56;22.00;99.90
25983;DHT22;13773;48.868;10.730;2023-09-18T11:17:38;21.90;99.90
25983;DHT22;13773;48.868;10.730;2023-09-18T11:20:18;22.80;99.90
25983;DHT22;13773;48.868;10.730;2023-09-18T11:22:49;21.80;99.90
25983;DHT22;13773;48.868;10.730;2023-09-18T11:28:00;21.60;99.90
25983;DHT22;13773;48.868;10.730;2023-09-18T11:30:28;21.60;99.90
25983;DHT22;13773;48.868;10.730;2023-09-18T11:32:54;21.20;99.90
25983;DHT22;13773;48.868;10.730;2023-09-18T11:35:21;21.10;99.90
25983;DHT22;13773;48.868;10.730;2023-09-18T11:37:47;20.90;99.90
25983;DHT22;13773;48.868;10.730;2023-09-18T11:40:30;20.60;99.90
25983;DHT22;13773;48.868;10.730;2023-09-18T11:43:18;20.40;99.90
25983;DHT22;13773;48.868;10.730;2023-09-18T11:45:49;20.40;99.90
25983;DHT22;13773;48.868;10.730;2023-09-18T11:48:16;20.10;99.90
25983;DHT22;13773;48.868;10.730;2023-09-18T11:50:42;19.80;99.90
25983;DHT22;13773;48.868;10.730;2023-09-18T11:53:08;19.60;99.90
25983;DHT22;13773;48.868;10.730;2023-09-18T11:55:35;19.40;99.90
25983;DHT22;13773;48.868;10.730;2023-09-18T11:58:03;19.10;99.90
25983;DHT22;13773;48.868;10.730;2023-09-18T12:00:29;18.90;99.90
25983;DHT22;13773;48.868;10.730;2023-09-18T12:02:55;18.80;99.90
25983;DHT22;13773;48.868;10.730;2023-09-18T12:05:21;18.60;99.90
25983;DHT22;13773;48.868;10.730;2023-09-18T12:07:51;18.70;99.90
25983;DHT22;13773;48.868;10.730;2023-09-18T12:10:19;18.60;99.90
25983;DHT22;13773;48.868;10.730;2023-09-18T12:12:48;18.60;99.90
25983;DHT22;13773;48.868;10.730;2023-09-18T12:15:18;18.40;99.90
25983;DHT22;13773;48.868;10.730;2023-09-18T12:17:45;18.30;99.90
25983;DHT22;13773;48.868;10.730;2023-09-18T12:20:17;18.10;99.90
25983;DHT22;13773;48.868;10.730;2023-09-18T12:22:50;18.00;99.90
25983;DHT22;13773;48.868;10.730;2023-09-18T12:25:16;17.90;99.90
25983;DHT22;13773;48.868;10.730;2023-09-18T12:27:46;17.80;99.90
25983;DHT22;13773;48.868;10.730;2023-09-18T12:30:16;17.70;99.90
25983;DHT22;13773;48.868;10.730;2023-09-18T12:32:46;17.60;99.90
25983;DHT22;13773;48.868;10.730;2023-09-18T12:35:15;17.60;99.90
25983;DHT22;13773;48.868;10.730;2023-09-18T12:37:41;17.60;99.90
25983;DHT22;13773;48.868;10.730;2023-09-18T12:40:24;17.60;99.90
25983;DHT22;13773;48.868;10.730;2023-09-18T12:42:51;17.60;99.90
25983;DHT22;13773;48.868;10.730;2023-09-18T12:45:17;17.50;99.90
25983;DHT22;13773;48.868;10.730;2023-09-18T12:47:43;17.50;99.90
25983;DHT22;13773;48.868;10.730;2023-09-18T12:50:13;17.50;99.90
25983;DHT22;13773;48.868;10.730;2023-09-18T12:52:39;17.40;99.90
25983;DHT22;13773;48.868;10.730;2023-09-18T12:55:04;19.20;99.90
25983;DHT22;13773;48.868;10.730;2023-09-18T12:57:32;17.30;99.90
25983;DHT22;13773;48.868;10.730;2023-09-18T12:59:58;17.40;99.90
25983;DHT22;13773;48.868;10.730;2023-09-18T13:02:24;17.40;99.90
25983;DHT22;13773;48.868;10.730;2023-09-18T13:04:52;17.30;99.90
25983;DHT22;13773;48.868;10.730;2023-09-18T13:07:18;17.30;99.90
25983;DHT22;13773;48.868;10.730;2023-09-18T13:10:01;19.60;99.90
25983;DHT22;13773;48.868;10.730;2023-09-18T13:12:42;17.20;99.90
25983;DHT22;13773;48.868;10.730;2023-09-18T13:15:09;17.20;99.90
25983;DHT22;13773;48.868;10.730;2023-09-18T13:17:42;17.20;99.90
25983;DHT22;13773;48.868;10.730;2023-09-18T13:20:13;17.20;99.90
25983;DHT22;13773;48.868;10.730;2023-09-18T13:22:41;17.20;99.90
25983;DHT22;13773;48.868;10.730;2023-09-18T13:25:10;17.30;99.90
25983;DHT22;13773;48.868;10.730;2023-09-18T13:27:39;17.30;99.90
25983;DHT22;13773;48.868;10.730;2023-09-18T13:30:06;17.30;99.90
25983;DHT22;13773;48.868;10.730;2023-09-18T13:32:38;17.40;99.90
25983;DHT22;13773;48.868;10.730;2023-09-18T13:35:04;17.30;99.90
25983;DHT22;13773;48.868;10.730;2023-09-18T13:37:34;17.20;99.90
25983;DHT22;13773;48.868;10.730;2023-09-18T13:40:00;17.10;99.90
25983;DHT22;13773;48.868;10.730;2023-09-18T13:42:31;17.10;99.90
25983;DHT22;13773;48.868;10.730;2023-09-18T13:45:00;17.10;99.90
25983;DHT22;13773;48.868;10.730;2023-09-18T13:47:27;17.00;99.90
25983;DHT22;13773;48.868;10.730;2023-09-18T13:49:53;17.00;99.90
25983;DHT22;13773;48.868;10.730;2023-09-18T13:52:23;17.00;99.90
25983;DHT22;13773;48.868;10.730;2023-09-18T13:54:49;17.10;99.90
25983;DHT22;13773;48.868;10.730;2023-09-18T13:57:20;17.10;99.90
25983;DHT22;13773;48.868;10.730;2023-09-18T13:59:47;17.20;99.90
25983;DHT22;13773;48.868;10.730;2023-09-18T14:02:14;17.40;99.90
25983;DHT22;13773;48.868;10.730;2023-09-18T14:04:40;17.40;99.90
25983;DHT22;13773;48.868;10.730;2023-09-18T14:07:06;17.40;99.90
25983;DHT22;13773;48.868;10.730;2023-09-18T14:09:32;17.40;99.90
25983;DHT22;13773;48.868;10.730;2023-09-18T14:11:58;17.40;99.90
25983;DHT22;13773;48.868;10.730;2023-09-18T14:14:24;17.30;99.90
25983;DHT22;13773;48.868;10.730;2023-09-18T14:16:49;17.40;99.90
25983;DHT22;13773;48.868;10.730;2023-09-18T14:19:19;17.60;99.90
25983;DHT22;13773;48.868;10.730;2023-09-18T14:21:45;17.60;99.90
25983;DHT22;13773;48.868;10.730;2023-09-18T14:24:12;17.70;99.90
25983;DHT22;13773;48.868;10.730;2023-09-18T14:26:37;18.00;99.90
25983;DHT22;13773;48.868;10.730;2023-09-18T14:29:10;18.00;99.90
25983;DHT22;13773;48.868;10.730;2023-09-18T14:31:39;18.00;99.90
25983;DHT22;13773;48.868;10.730;2023-09-18T14:34:05;17.90;99.90
25983;DHT22;13773;48.868;10.730;2023-09-18T14:36:34;17.90;99.90
25983;DHT22;13773;48.868;10.730;2023-09-18T14:39:04;18.00;99.90
25983;DHT22;13773;48.868;10.730;2023-09-18T14:41:29;18.00;99.90
25983;DHT22;13773;48.868;10.730;2023-09-18T14:43:57;18.00;99.90
25983;DHT22;13773;48.868;10.730;2023-09-18T14:46:24;18.10;99.90
25983;DHT22;13773;48.868;10.730;2023-09-18T14:48:50;18.20;99.90
25983;DHT22;13773;48.868;10.730;2023-09-18T14:51:16;18.20;99.90
25983;DHT22;13773;48.868;10.730;2023-09-18T14:53:43;18.00;99.90
25983;DHT22;13773;48.868;10.730;2023-09-18T14:56:10;18.10;99.90
25983;DHT22;13773;48.868;10.730;2023-09-18T14:58:36;17.90;99.90
25983;DHT22;13773;48.868;10.730;2023-09-18T15:01:01;17.80;99.90
25983;DHT22;13773;48.868;10.730;2023-09-18T15:03:28;17.80;99.90
25983;DHT22;13773;48.868;10.730;2023-09-18T15:05:54;18.10;99.90
25983;DHT22;13773;48.868;10.730;2023-09-18T15:08:21;18.30;99.90
25983;DHT22;13773;48.868;10.730;2023-09-18T15:10:47;18.50;99.90
25983;DHT22;13773;48.868;10.730;2023-09-18T15:13:12;18.60;99.90
25983;DHT22;13773;48.868;10.730;2023-09-18T15:15:42;18.80;99.90
25983;DHT22;13773;48.868;10.730;2023-09-18T15:18:08;18.80;99.90
25983;DHT22;13773;48.868;10.730;2023-09-18T15:20:34;18.70;99.90
25983;DHT22;13773;48.868;10.730;2023-09-18T15:23:00;18.70;99.90
25983;DHT22;13773;48.868;10.730;2023-09-18T15:25:26;18.70;99.90
25983;DHT22;13773;48.868;10.730;2023-09-18T15:27:52;18.70;99.90
25983;DHT22;13773;48.868;10.730;2023-09-18T15:30:18;18.70;99.90